Time;durP1;ratioP1;P1;durP2;ratioP2;P2;SDS_P1;SDS_P2;PMS_P1;PMS_P2;Temp;Humidity;BMP_temperature;BMP_pressure;BME280_temperature;BME280_humidity;BME280_pressure;Samples;Min_cycle;Max_cycle;Signal;HPM_P1;HPM_P2
2023/04/07 00:01:16;;;;;;;6.07;3.13;;;;;;;;;;4960545;28;20041;-74
2023/04/07 00:03:42;;;;;;;4.18;3.38;;;;;;;;;;4961463;28;20061;-74
2023/04/07 00:06:09;;;;;;;6.90;3.20;;;;;;;;;;4961678;28;20110;-75
2023/04/07 00:08:35;;;;;;;4.03;2.88;;;;;;;;;;4961845;28;20394;-74
2023/04/07 00:11:01;;;;;;;3.92;2.70;;;;;;;;;;4954160;28;20432;-77
2023/04/07 00:13:28;;;;;;;4.50;2.78;;;;;;;;;;4950662;28;20118;-73
2023/04/07 00:15:54;;;;;;;4.53;3.13;;;;;;;;;;4958222;28;20026;-74
2023/04/07 00:18:20;;;;;;;6.20;3.20;;;;;;;;;;4956210;28;20106;-74
2023/04/07 00:20:46;;;;;;;9.63;3.05;;;;;;;;;;4949444;28;20471;-74
2023/04/07 00:23:12;;;;;;;9.55;3.55;;;;;;;;;;4963143;28;20118;-74
2023/04/07 00:25:39;;;;;;;7.32;3.20;;;;;;;;;;4948901;28;20023;-77
2023/04/07 00:28:05;;;;;;;4.90;2.85;;;;;;;;;;4944393;28;20120;-74
2023/04/07 00:30:31;;;;;;;7.32;3.20;;;;;;;;;;4932278;28;20138;-73
2023/04/07 00:32:57;;;;;;;8.60;3.15;;;;;;;;;;4930126;28;20046;-76
2023/04/07 00:35:23;;;;;;;6.15;3.15;;;;;;;;;;4937360;28;20519;-74
2023/04/07 00:37:50;;;;;;;4.50;3.10;;;;;;;;;;4949096;28;20061;-73
2023/04/07 00:40:17;;;;;;;6.25;3.03;;;;;;;;;;4948458;28;20024;-74
2023/04/07 00:42:43;;;;;;;4.20;2.83;;;;;;;;;;4949872;29;20151;-74
2023/04/07 00:45:10;;;;;;;8.63;3.42;;;;;;;;;;4943581;28;20034;-75
2023/04/07 00:47:36;;;;;;;5.03;3.10;;;;;;;;;;4942912;28;20027;-74
2023/04/07 00:50:05;;;;;;;4.28;3.03;;;;;;;;;;4940989;28;20027;-75
2023/04/07 00:52:32;;;;;;;5.05;2.67;;;;;;;;;;4938383;28;20473;-74
2023/04/07 00:55:01;;;;;;;6.10;2.80;;;;;;;;;;4936328;28;20035;-73
2023/04/07 00:57:28;;;;;;;4.65;3.30;;;;;;;;;;4944515;28;20095;-74
2023/04/07 00:59:55;;;;;;;12.18;3.05;;;;;;;;;;4948663;28;20038;-76
2023/04/07 01:02:21;;;;;;;3.65;2.85;;;;;;;;;;4942838;28;20518;-74
2023/04/07 01:04:51;;;;;;;3.95;2.72;;;;;;;;;;4922504;29;20679;-74
2023/04/07 01:07:24;;;;;;;6.60;2.80;;;;;;;;;;4931052;28;20020;-75
2023/04/07 01:10:04;;;;;;;9.88;3.08;;;;;;;;;;4943196;28;20023;-74
2023/04/07 01:12:33;;;;;;;4.50;2.90;;;;;;;;;;4943309;28;20050;-74
2023/04/07 01:15:04;;;;;;;5.05;2.90;;;;;;;;;;4951813;28;20197;-75
2023/04/07 01:17:33;;;;;;;4.32;2.90;;;;;;;;;;4947202;28;20046;-74
2023/04/07 01:20:08;;;;;;;7.53;3.05;;;;;;;;;;4940783;28;20114;-75
2023/04/07 01:22:39;;;;;;;4.40;2.70;;;;;;;;;;4932357;28;20027;-75
2023/04/07 01:25:08;;;;;;;3.38;2.72;;;;;;;;;;4940512;28;20043;-74
2023/04/07 01:27:38;;;;;;;9.10;3.17;;;;;;;;;;4946991;28;20062;-74
2023/04/07 01:30:06;;;;;;;5.50;2.80;;;;;;;;;;4968292;28;20822;-74
2023/04/07 01:32:35;;;;;;;5.35;3.13;;;;;;;;;;4961597;28;20049;-75
2023/04/07 01:35:02;;;;;;;4.75;3.00;;;;;;;;;;4965921;28;20030;-74
2023/04/07 01:37:29;;;;;;;5.68;2.97;;;;;;;;;;4956999;28;20115;-74
2023/04/07 01:39:55;;;;;;;5.68;3.72;;;;;;;;;;4965192;28;20037;-74
2023/04/07 01:42:22;;;;;;;6.28;3.00;;;;;;;;;;4960608;28;20023;-74
2023/04/07 01:44:49;;;;;;;4.63;2.72;;;;;;;;;;4943510;28;20125;-74
2023/04/07 01:47:16;;;;;;;8.65;3.10;;;;;;;;;;4964688;28;20494;-74
2023/04/07 01:49:43;;;;;;;5.13;2.83;;;;;;;;;;4963904;28;20057;-76
2023/04/07 01:52:10;;;;;;;3.55;2.97;;;;;;;;;;4956821;28;20031;-75
2023/04/07 01:54:37;;;;;;;5.82;2.90;;;;;;;;;;4950216;28;20098;-74
2023/04/07 01:57:03;;;;;;;5.05;2.88;;;;;;;;;;4973317;28;20038;-74
2023/04/07 01:59:29;;;;;;;4.38;2.80;;;;;;;;;;4966129;28;20231;-76
2023/04/07 02:01:55;;;;;;;10.70;3.22;;;;;;;;;;4968115;28;20117;-75
2023/04/07 02:04:27;;;;;;;4.70;3.00;;;;;;;;;;4952705;28;20105;-74
2023/04/07 02:07:03;;;;;;;5.43;3.20;;;;;;;;;;4971477;28;20512;-74
2023/04/07 02:09:31;;;;;;;4.80;2.95;;;;;;;;;;4972462;28;20376;-73
2023/04/07 02:11:59;;;;;;;4.22;2.70;;;;;;;;;;4957161;28;20508;-74
2023/04/07 02:14:26;;;;;;;7.15;2.80;;;;;;;;;;4958569;28;20023;-74
2023/04/07 02:16:52;;;;;;;3.35;2.97;;;;;;;;;;4963416;28;20035;-77
2023/04/07 02:19:19;;;;;;;7.63;3.28;;;;;;;;;;4966591;28;20090;-74
2023/04/07 02:21:45;;;;;;;4.68;3.10;;;;;;;;;;4964158;28;20264;-73
2023/04/07 02:24:12;;;;;;;4.25;2.72;;;;;;;;;;4962399;28;20077;-74
2023/04/07 02:26:38;;;;;;;5.78;3.08;;;;;;;;;;4940566;28;20440;-73
2023/04/07 02:29:05;;;;;;;4.93;2.97;;;;;;;;;;4964373;28;20081;-73
2023/04/07 02:31:31;;;;;;;5.55;3.63;;;;;;;;;;4962377;28;20043;-73
2023/04/07 02:33:57;;;;;;;3.65;2.97;;;;;;;;;;4958648;28;20023;-74
2023/04/07 02:36:25;;;;;;;3.63;2.60;;;;;;;;;;4964441;28;20046;-73
2023/04/07 02:38:51;;;;;;;4.28;2.90;;;;;;;;;;4957325;28;20027;-74
2023/04/07 02:41:17;;;;;;;7.20;3.05;;;;;;;;;;4957150;28;20038;-74
2023/04/07 02:43:44;;;;;;;6.43;3.00;;;;;;;;;;4959583;28;20086;-74
2023/04/07 02:46:10;;;;;;;3.75;2.63;;;;;;;;;;4959223;28;20087;-75
2023/04/07 02:48:36;;;;;;;6.20;3.10;;;;;;;;;;4937430;28;20027;-74
2023/04/07 02:51:03;;;;;;;5.80;2.95;;;;;;;;;;4958868;28;20118;-77
2023/04/07 02:53:29;;;;;;;5.55;2.88;;;;;;;;;;4973153;28;20058;-74
2023/04/07 02:55:55;;;;;;;6.05;2.85;;;;;;;;;;4962046;28;20019;-74
2023/04/07 02:58:21;;;;;;;6.85;3.00;;;;;;;;;;4970201;28;20093;-74
2023/04/07 03:00:48;;;;;;;5.82;3.08;;;;;;;;;;4974344;28;20065;-74
2023/04/07 03:03:15;;;;;;;3.72;2.70;;;;;;;;;;4969987;28;20760;-74
2023/04/07 03:05:41;;;;;;;4.32;2.65;;;;;;;;;;4977386;28;20031;-75
2023/04/07 03:08:07;;;;;;;4.47;2.80;;;;;;;;;;4963129;28;20117;-74
2023/04/07 03:10:33;;;;;;;3.92;2.58;;;;;;;;;;4974012;28;20175;-75
2023/04/07 03:12:59;;;;;;;6.45;3.28;;;;;;;;;;4958812;28;20022;-74
2023/04/07 03:15:26;;;;;;;6.47;3.08;;;;;;;;;;4956958;28;20039;-74
2023/04/07 03:17:52;;;;;;;14.63;3.00;;;;;;;;;;4964953;28;20458;-74
2023/04/07 03:20:18;;;;;;;4.68;2.30;;;;;;;;;;4958424;28;20030;-74
2023/04/07 03:22:46;;;;;;;4.60;3.10;;;;;;;;;;4956846;28;20023;-75
2023/04/07 03:25:12;;;;;;;8.55;3.47;;;;;;;;;;4963463;28;20023;-74
2023/04/07 03:27:39;;;;;;;5.25;2.72;;;;;;;;;;4962054;28;20034;-74
2023/04/07 03:30:06;;;;;;;8.60;3.15;;;;;;;;;;4957952;28;20073;-76
2023/04/07 03:32:32;;;;;;;6.38;2.65;;;;;;;;;;4960055;28;20046;-73
2023/04/07 03:34:58;;;;;;;6.22;3.28;;;;;;;;;;4967765;28;20555;-74
2023/04/07 03:37:24;;;;;;;4.53;2.97;;;;;;;;;;4967056;28;20166;-74
2023/04/07 03:39:50;;;;;;;7.72;2.80;;;;;;;;;;4967529;28;20487;-74
2023/04/07 03:42:17;;;;;;;5.32;2.92;;;;;;;;;;4956576;28;20031;-74
2023/04/07 03:44:43;;;;;;;4.57;2.80;;;;;;;;;;4955338;28;20098;-74
2023/04/07 03:47:09;;;;;;;3.67;2.65;;;;;;;;;;4963213;28;20110;-75
2023/04/07 03:49:37;;;;;;;4.97;3.13;;;;;;;;;;4965848;28;20026;-74
2023/04/07 03:52:04;;;;;;;4.05;2.65;;;;;;;;;;4943761;28;20050;-74
2023/04/07 03:54:30;;;;;;;25.05;3.38;;;;;;;;;;4966061;28;20031;-74
2023/04/07 03:56:56;;;;;;;4.35;3.05;;;;;;;;;;4967035;28;20081;-75
2023/04/07 03:59:23;;;;;;;5.03;2.97;;;;;;;;;;4945973;28;20031;-74
2023/04/07 04:01:49;;;;;;;6.13;3.20;;;;;;;;;;4951460;28;20038;-74
2023/04/07 04:04:15;;;;;;;4.63;2.85;;;;;;;;;;4961859;28;20691;-76
2023/04/07 04:06:41;;;;;;;7.03;3.15;;;;;;;;;;4963183;28;20038;-76
2023/04/07 04:09:07;;;;;;;4.85;3.03;;;;;;;;;;4961609;28;20771;-74
2023/04/07 04:11:34;;;;;;;5.93;3.10;;;;;;;;;;4964803;28;20028;-74
2023/04/07 04:14:00;;;;;;;5.53;3.17;;;;;;;;;;4960950;28;20061;-76
2023/04/07 04:16:26;;;;;;;5.15;3.17;;;;;;;;;;4966979;28;20085;-73
2023/04/07 04:18:53;;;;;;;5.10;3.13;;;;;;;;;;4966160;28;20035;-74
2023/04/07 04:21:19;;;;;;;19.33;3.88;;;;;;;;;;4966636;28;20025;-73
2023/04/07 04:23:45;;;;;;;6.85;2.95;;;;;;;;;;4965506;28;20406;-74
2023/04/07 04:26:12;;;;;;;6.82;3.80;;;;;;;;;;4953759;28;20023;-75
2023/04/07 04:28:38;;;;;;;5.15;2.90;;;;;;;;;;4965989;28;20122;-73
2023/04/07 04:31:04;;;;;;;6.13;2.65;;;;;;;;;;4965489;28;20113;-74
2023/04/07 04:33:31;;;;;;;5.60;3.30;;;;;;;;;;4964743;28;20483;-75
2023/04/07 04:35:57;;;;;;;5.78;2.85;;;;;;;;;;4959987;28;20450;-74
2023/04/07 04:38:23;;;;;;;3.72;2.83;;;;;;;;;;4965672;28;20034;-74
2023/04/07 04:40:49;;;;;;;5.13;3.10;;;;;;;;;;4974262;28;20624;-74
2023/04/07 04:43:15;;;;;;;5.18;2.97;;;;;;;;;;4961928;28;20038;-74
2023/04/07 04:45:42;;;;;;;6.82;3.00;;;;;;;;;;4961027;28;20798;-76
2023/04/07 04:48:09;;;;;;;4.32;2.92;;;;;;;;;;4954815;28;20026;-74
2023/04/07 04:50:36;;;;;;;5.40;2.80;;;;;;;;;;4967179;28;20019;-74
2023/04/07 04:53:02;;;;;;;6.90;2.97;;;;;;;;;;4948595;28;20031;-74
2023/04/07 04:55:28;;;;;;;5.65;3.40;;;;;;;;;;4964192;28;20037;-74
2023/04/07 04:57:54;;;;;;;3.85;2.90;;;;;;;;;;4957349;28;20121;-73
2023/04/07 05:00:20;;;;;;;4.65;3.17;;;;;;;;;;4964593;28;20058;-73
2023/04/07 05:02:47;;;;;;;4.22;3.00;;;;;;;;;;4965317;28;20027;-74
2023/04/07 05:05:13;;;;;;;4.68;3.00;;;;;;;;;;4972379;28;20170;-74
2023/04/07 05:07:39;;;;;;;6.82;3.00;;;;;;;;;;4964179;28;20027;-74
2023/04/07 05:10:08;;;;;;;5.07;3.08;;;;;;;;;;4944771;28;20028;-77
2023/04/07 05:12:35;;;;;;;6.70;2.90;;;;;;;;;;4956776;28;20079;-73
2023/04/07 05:15:01;;;;;;;5.80;3.22;;;;;;;;;;4966283;28;20026;-74
2023/04/07 05:17:27;;;;;;;4.00;2.67;;;;;;;;;;4960136;28;20063;-73
2023/04/07 05:19:54;;;;;;;4.47;3.03;;;;;;;;;;4960415;28;20556;-74
2023/04/07 05:22:20;;;;;;;5.68;3.08;;;;;;;;;;4958684;28;20146;-73
2023/04/07 05:24:46;;;;;;;6.60;2.70;;;;;;;;;;4966031;28;20022;-74
2023/04/07 05:27:13;;;;;;;11.15;3.28;;;;;;;;;;4956365;28;20031;-74
2023/04/07 05:29:39;;;;;;;7.57;3.10;;;;;;;;;;4967480;28;20050;-73
2023/04/07 05:32:06;;;;;;;7.00;3.22;;;;;;;;;;4950961;28;20093;-74
2023/04/07 05:34:32;;;;;;;11.55;3.55;;;;;;;;;;4958767;28;20022;-77
2023/04/07 05:36:58;;;;;;;7.43;3.55;;;;;;;;;;4959252;28;20114;-74
2023/04/07 05:39:25;;;;;;;7.55;3.70;;;;;;;;;;4961128;28;20545;-74
2023/04/07 05:41:51;;;;;;;8.60;3.90;;;;;;;;;;4964169;28;20105;-74
2023/04/07 05:44:17;;;;;;;6.60;3.58;;;;;;;;;;4959498;28;20050;-74
2023/04/07 05:46:44;;;;;;;4.68;3.50;;;;;;;;;;4965620;28;20114;-74
2023/04/07 05:49:10;;;;;;;6.13;3.83;;;;;;;;;;4971544;28;20390;-74
2023/04/07 05:51:36;;;;;;;5.25;3.67;;;;;;;;;;4962405;28;20522;-74
2023/04/07 05:54:02;;;;;;;5.53;3.75;;;;;;;;;;4962340;28;20055;-74
2023/04/07 05:56:29;;;;;;;5.47;3.20;;;;;;;;;;4944433;28;20433;-75
2023/04/07 05:58:55;;;;;;;4.45;3.15;;;;;;;;;;4961773;28;20038;-74
2023/04/07 06:01:22;;;;;;;9.18;3.53;;;;;;;;;;4956317;28;20023;-76
2023/04/07 06:03:48;;;;;;;6.75;3.50;;;;;;;;;;4971154;28;20154;-75
2023/04/07 06:06:14;;;;;;;7.35;3.67;;;;;;;;;;4962328;28;20125;-74
2023/04/07 06:08:41;;;;;;;6.03;3.38;;;;;;;;;;4970115;28;20027;-74
2023/04/07 06:17:14;;;;;;;6.45;4.38;;;;;;;;;;4959512;28;20071;-92
2023/04/07 06:19:41;;;;;;;7.28;4.65;;;;;;;;;;5017246;28;20030;-90
2023/04/07 06:22:07;;;;;;;6.85;4.28;;;;;;;;;;5012762;28;20025;-91
2023/04/07 06:24:33;;;;;;;9.80;4.20;;;;;;;;;;5020794;28;20029;-90
2023/04/07 06:27:00;;;;;;;7.72;3.88;;;;;;;;;;5004297;28;20091;-87
2023/04/07 06:29:28;;;;;;;6.90;4.53;;;;;;;;;;5007542;28;20045;-87
2023/04/07 06:31:54;;;;;;;8.23;3.95;;;;;;;;;;5010054;28;20068;-87
2023/04/07 06:34:20;;;;;;;6.72;3.78;;;;;;;;;;5009813;28;20182;-87
2023/04/07 06:36:47;;;;;;;7.30;3.70;;;;;;;;;;5021279;28;20032;-86
2023/04/07 06:39:13;;;;;;;8.00;3.10;;;;;;;;;;5015761;28;20068;-86
2023/04/07 06:41:41;;;;;;;6.57;2.60;;;;;;;;;;5013652;28;20484;-87
2023/04/07 06:44:09;;;;;;;4.53;2.88;;;;;;;;;;5013054;28;20007;-87
2023/04/07 06:46:36;;;;;;;4.97;2.33;;;;;;;;;;5011513;28;20026;-86
2023/04/07 06:49:02;;;;;;;5.30;2.50;;;;;;;;;;5011322;28;20074;-86
2023/04/07 06:51:29;;;;;;;5.28;2.60;;;;;;;;;;5022625;28;20088;-87
2023/04/07 06:53:55;;;;;;;3.05;2.35;;;;;;;;;;5014232;28;20065;-86
2023/04/07 06:56:23;;;;;;;4.28;2.53;;;;;;;;;;5012750;28;20045;-86
2023/04/07 06:58:49;;;;;;;5.97;2.70;;;;;;;;;;5012363;28;20026;-86
2023/04/07 07:01:16;;;;;;;4.07;2.83;;;;;;;;;;5007874;28;20026;-86
2023/04/07 07:03:42;;;;;;;3.22;2.60;;;;;;;;;;5021470;28;20025;-86
2023/04/07 07:06:08;;;;;;;3.42;2.50;;;;;;;;;;5008572;28;20033;-86
2023/04/07 07:08:34;;;;;;;2.88;2.20;;;;;;;;;;5011458;28;20088;-86
2023/04/07 07:11:01;;;;;;;8.00;3.08;;;;;;;;;;5018295;28;20132;-87
2023/04/07 07:13:28;;;;;;;3.45;2.63;;;;;;;;;;5015711;28;20031;-86
2023/04/07 07:15:54;;;;;;;4.00;3.20;;;;;;;;;;5019797;28;20594;-86
2023/04/07 07:18:20;;;;;;;4.05;2.55;;;;;;;;;;5017407;28;20037;-86
2023/04/07 07:20:47;;;;;;;3.45;2.80;;;;;;;;;;5012599;28;20388;-85
2023/04/07 07:23:13;;;;;;;4.25;3.00;;;;;;;;;;5017225;28;20087;-86
2023/04/07 07:25:39;;;;;;;5.40;2.92;;;;;;;;;;5009687;28;20030;-86
2023/04/07 07:28:05;;;;;;;5.63;2.80;;;;;;;;;;5004002;28;20034;-85
2023/04/07 07:30:31;;;;;;;3.50;2.72;;;;;;;;;;5009014;28;20108;-85
2023/04/07 07:32:58;;;;;;;4.50;3.40;;;;;;;;;;5016967;28;20329;-85
2023/04/07 07:35:24;;;;;;;4.35;3.05;;;;;;;;;;5011217;28;21413;-85
2023/04/07 07:37:50;;;;;;;3.33;2.75;;;;;;;;;;5015167;28;20049;-85
2023/04/07 07:40:17;;;;;;;3.53;2.67;;;;;;;;;;5011722;28;20394;-85
2023/04/07 07:42:43;;;;;;;5.90;3.85;;;;;;;;;;5016000;28;20033;-85
2023/04/07 07:45:10;;;;;;;4.47;3.00;;;;;;;;;;5019140;28;20498;-86
2023/04/07 07:47:37;;;;;;;5.65;2.92;;;;;;;;;;5020581;28;20056;-85
2023/04/07 07:50:04;;;;;;;3.58;2.90;;;;;;;;;;5017635;28;20033;-86
2023/04/07 07:52:30;;;;;;;4.85;3.00;;;;;;;;;;5017013;28;20487;-86
2023/04/07 07:54:56;;;;;;;4.03;3.10;;;;;;;;;;5016483;28;20029;-86
2023/04/07 07:57:23;;;;;;;14.73;3.10;;;;;;;;;;5014548;28;20042;-86
2023/04/07 07:59:49;;;;;;;6.05;3.33;;;;;;;;;;5004604;28;20050;-86
2023/04/07 08:02:15;;;;;;;4.15;2.60;;;;;;;;;;5005103;28;20485;-86
2023/04/07 08:04:41;;;;;;;5.18;3.22;;;;;;;;;;5009767;28;20044;-86
2023/04/07 08:07:08;;;;;;;4.57;3.10;;;;;;;;;;5015560;28;20049;-85
2023/04/07 08:09:34;;;;;;;4.03;3.30;;;;;;;;;;5004175;28;20010;-86
2023/04/07 08:12:00;;;;;;;5.72;2.85;;;;;;;;;;5009219;28;20071;-86
2023/04/07 08:14:26;;;;;;;5.80;3.70;;;;;;;;;;5015996;28;20033;-86
2023/04/07 08:16:52;;;;;;;8.02;4.28;;;;;;;;;;5019576;28;20057;-86
2023/04/07 08:19:19;;;;;;;7.22;3.83;;;;;;;;;;5020479;28;20021;-86
2023/04/07 08:21:45;;;;;;;7.38;3.50;;;;;;;;;;5018623;28;20036;-87
2023/04/07 08:24:11;;;;;;;5.00;3.63;;;;;;;;;;5019047;28;20029;-87
2023/04/07 08:26:38;;;;;;;4.63;3.50;;;;;;;;;;5013169;28;20029;-86
2023/04/07 08:29:04;;;;;;;4.60;3.28;;;;;;;;;;5023833;28;20017;-86
2023/04/07 08:31:34;;;;;;;3.58;2.63;;;;;;;;;;5022742;28;20222;-86
2023/04/07 08:34:00;;;;;;;4.18;2.97;;;;;;;;;;5020886;28;20106;-87
2023/04/07 08:36:27;;;;;;;4.65;3.10;;;;;;;;;;5027543;28;20087;-86
2023/04/07 08:38:54;;;;;;;4.30;3.30;;;;;;;;;;5030441;28;20376;-85
2023/04/07 08:41:33;;;;;;;4.35;3.17;;;;;;;;;;5023597;28;20021;-86
2023/04/07 08:44:01;;;;;;;4.60;3.08;;;;;;;;;;5028754;28;20048;-86
2023/04/07 08:46:27;;;;;;;4.40;4.00;;;;;;;;;;5026016;28;20543;-87
2023/04/07 08:48:55;;;;;;;4.03;3.30;;;;;;;;;;5024802;28;20021;-87
2023/04/07 08:51:28;;;;;;;3.47;2.85;;;;;;;;;;5022868;28;20036;-87
2023/04/07 08:54:00;;;;;;;3.70;2.78;;;;;;;;;;5024564;28;20127;-86
2023/04/07 08:56:27;;;;;;;3.17;2.67;;;;;;;;;;5019960;28;20021;-86
2023/04/07 08:58:54;;;;;;;4.28;2.63;;;;;;;;;;5012474;28;20036;-87
2023/04/07 09:01:20;;;;;;;3.45;2.60;;;;;;;;;;5013443;28;20043;-85
2023/04/07 09:03:48;;;;;;;3.28;2.50;;;;;;;;;;5016368;28;20018;-86
2023/04/07 09:06:14;;;;;;;3.58;2.13;;;;;;;;;;5019175;28;20417;-88
2023/04/07 09:08:41;;;;;;;5.45;2.47;;;;;;;;;;5039280;28;20025;-87
2023/04/07 09:11:07;;;;;;;6.00;2.95;;;;;;;;;;5018610;28;20065;-87
2023/04/07 09:13:33;;;;;;;3.78;2.22;;;;;;;;;;5023589;28;20380;-87
2023/04/07 09:16:01;;;;;;;3.97;2.67;;;;;;;;;;5013606;28;20072;-86
2023/04/07 09:18:28;;;;;;;5.63;2.83;;;;;;;;;;5021707;28;20185;-87
2023/04/07 09:23:58;;;;;;;4.20;3.10;;;;;;;;;;5016339;28;20047;-86
2023/04/07 09:26:26;;;;;;;5.63;3.33;;;;;;;;;;5018389;28;20322;-86
2023/04/07 09:28:54;;;;;;;5.82;3.60;;;;;;;;;;5018504;28;20423;-87
2023/04/07 09:31:21;;;;;;;6.57;4.18;;;;;;;;;;5010731;28;20037;-86
2023/04/07 09:33:51;;;;;;;5.78;3.83;;;;;;;;;;5014725;28;20301;-86
2023/04/07 09:36:18;;;;;;;6.15;3.97;;;;;;;;;;5014558;28;20018;-86
2023/04/07 09:38:45;;;;;;;7.95;4.28;;;;;;;;;;5009972;28;20032;-86
2023/04/07 09:41:15;;;;;;;5.30;4.10;;;;;;;;;;5019355;28;20043;-85
2023/04/07 09:43:46;;;;;;;5.90;4.10;;;;;;;;;;5024760;28;20266;-86
2023/04/07 09:46:13;;;;;;;4.40;3.28;;;;;;;;;;5031213;28;20034;-85
2023/04/07 09:48:39;;;;;;;3.90;3.25;;;;;;;;;;5015885;28;20032;-86
2023/04/07 09:51:07;;;;;;;7.03;3.65;;;;;;;;;;5018862;28;20042;-85
2023/04/07 09:53:50;;;;;;;5.88;3.83;;;;;;;;;;5007889;28;20422;-85
2023/04/07 09:56:17;;;;;;;4.40;3.60;;;;;;;;;;5014821;28;20028;-85
2023/04/07 09:58:45;;;;;;;5.43;3.20;;;;;;;;;;5025286;28;20036;-86
2023/04/07 10:01:18;;;;;;;4.25;3.33;;;;;;;;;;5008968;28;20033;-85
2023/04/07 10:03:49;;;;;;;6.28;3.92;;;;;;;;;;5014018;28;20029;-86
2023/04/07 10:06:15;;;;;;;5.82;3.90;;;;;;;;;;5014182;28;20122;-86
2023/04/07 10:08:42;;;;;;;5.55;3.67;;;;;;;;;;5024443;28;20491;-87
2023/04/07 10:11:09;;;;;;;6.25;3.88;;;;;;;;;;5027475;28;20072;-86
2023/04/07 10:13:37;;;;;;;6.05;3.60;;;;;;;;;;5021042;28;20025;-86
2023/04/07 10:16:05;;;;;;;4.30;3.40;;;;;;;;;;5018957;28;20524;-86
2023/04/07 10:18:35;;;;;;;4.10;3.00;;;;;;;;;;5017821;28;20310;-86
2023/04/07 10:21:02;;;;;;;7.38;3.05;;;;;;;;;;5013319;28;20117;-85
2023/04/07 10:23:34;;;;;;;5.00;3.35;;;;;;;;;;5015878;28;20030;-86
2023/04/07 10:26:02;;;;;;;6.40;3.88;;;;;;;;;;5018396;28;20112;-86
2023/04/07 10:28:30;;;;;;;4.70;3.47;;;;;;;;;;5012601;28;20036;-86
2023/04/07 10:30:57;;;;;;;3.63;3.13;;;;;;;;;;5016788;28;20140;-87
2023/04/07 10:33:42;;;;;;;3.95;3.13;;;;;;;;;;5018602;28;20419;-96
2023/04/07 10:36:08;;;;;;;6.85;3.15;;;;;;;;;;5028992;28;20052;-95
2023/04/07 10:38:50;;;;;;;3.65;2.80;;;;;;;;;;5027016;28;20021;-96
2023/04/07 10:41:35;;;;;;;5.05;3.42;;;;;;;;;;5025935;28;20038;-96
2023/04/07 10:44:03;;;;;;;4.60;3.75;;;;;;;;;;5037231;28;20060;-94
2023/04/07 10:46:45;;;;;;;3.28;2.53;;;;;;;;;;5038202;28;20021;-96
2023/04/07 10:51:45;;;;;;;3.20;2.90;;;;;;;;;;5037899;28;20504;-75
2023/04/07 10:54:15;;;;;;;5.15;2.80;;;;;;;;;;5039928;28;20039;-75
2023/04/07 10:57:01;;;;;;;3.70;2.70;;;;;;;;;;5039387;28;20022;-76
2023/04/07 10:59:28;;;;;;;4.25;3.00;;;;;;;;;;5040539;28;20030;-75
2023/04/07 11:02:12;;;;;;;9.80;3.00;;;;;;;;;;5039938;28;20508;-76
2023/04/07 11:04:39;;;;;;;3.28;2.75;;;;;;;;;;5040364;28;20029;-76
2023/04/07 11:07:06;;;;;;;4.68;2.88;;;;;;;;;;5039992;28;20111;-76
2023/04/07 11:09:32;;;;;;;4.95;3.13;;;;;;;;;;5050892;28;20061;-75
2023/04/07 11:11:58;;;;;;;5.85;2.85;;;;;;;;;;5048535;28;20056;-76
2023/04/07 11:14:26;;;;;;;4.95;3.20;;;;;;;;;;5048258;28;20025;-76
2023/04/07 11:16:52;;;;;;;7.30;3.42;;;;;;;;;;5044275;28;20057;-76
2023/04/07 11:19:18;;;;;;;4.90;2.78;;;;;;;;;;5042696;28;20021;-76
2023/04/07 11:21:45;;;;;;;2.92;2.63;;;;;;;;;;5045338;28;20009;-76
2023/04/07 11:24:11;;;;;;;3.42;2.65;;;;;;;;;;5024753;28;20064;-76
2023/04/07 11:26:40;;;;;;;3.78;2.90;;;;;;;;;;5028776;28;20574;-77
2023/04/07 11:29:06;;;;;;;3.53;2.83;;;;;;;;;;5007270;28;20033;-76
2023/04/07 11:31:33;;;;;;;3.85;2.80;;;;;;;;;;5031704;28;20022;-76
2023/04/07 11:34:04;;;;;;;4.53;3.20;;;;;;;;;;5024292;28;20021;-75
2023/04/07 11:36:34;;;;;;;3.25;2.63;;;;;;;;;;5004769;28;20536;-76
2023/04/07 11:39:01;;;;;;;6.55;2.55;;;;;;;;;;5028634;28;20034;-76
2023/04/07 11:41:29;;;;;;;4.35;2.67;;;;;;;;;;5022049;28;20366;-76
2023/04/07 11:44:05;;;;;;;4.57;2.70;;;;;;;;;;5024121;28;20034;-76
2023/04/07 11:46:31;;;;;;;5.75;2.90;;;;;;;;;;5032866;28;20025;-75
2023/04/07 11:49:08;;;;;;;3.78;2.78;;;;;;;;;;5008274;28;20417;-76
2023/04/07 11:51:35;;;;;;;3.42;2.90;;;;;;;;;;5021909;28;20038;-75
2023/04/07 11:54:01;;;;;;;4.72;3.67;;;;;;;;;;5022872;28;20140;-75
2023/04/07 11:56:29;;;;;;;5.15;3.80;;;;;;;;;;5029467;28;20087;-76
2023/04/07 11:58:56;;;;;;;4.82;3.22;;;;;;;;;;5024316;28;20409;-76
2023/04/07 12:01:25;;;;;;;3.28;2.83;;;;;;;;;;5020298;28;20124;-76
2023/04/07 12:03:57;;;;;;;4.22;2.80;;;;;;;;;;5023819;28;20056;-76
2023/04/07 12:06:34;;;;;;;4.70;3.50;;;;;;;;;;5023841;28;20025;-75
2023/04/07 12:09:04;;;;;;;5.25;2.92;;;;;;;;;;5023021;28;20034;-76
2023/04/07 12:11:30;;;;;;;3.80;2.35;;;;;;;;;;5020081;28;20022;-75
2023/04/07 12:13:57;;;;;;;6.35;3.10;;;;;;;;;;5015383;28;20040;-76
2023/04/07 12:16:23;;;;;;;6.20;2.90;;;;;;;;;;5023278;28;20029;-77
2023/04/07 12:18:53;;;;;;;3.45;3.10;;;;;;;;;;5022298;28;20632;-76
2023/04/07 12:21:20;;;;;;;3.08;2.47;;;;;;;;;;5002928;28;20056;-76
2023/04/07 12:23:47;;;;;;;5.95;2.95;;;;;;;;;;5022331;28;20037;-76
2023/04/07 12:26:13;;;;;;;3.97;2.97;;;;;;;;;;5021167;28;20060;-77
2023/04/07 12:28:40;;;;;;;3.90;2.70;;;;;;;;;;5022541;28;20773;-76
2023/04/07 12:31:06;;;;;;;7.13;2.60;;;;;;;;;;5021502;28;20029;-77
2023/04/07 12:33:32;;;;;;;4.47;2.70;;;;;;;;;;5022751;28;20029;-76
2023/04/07 12:35:58;;;;;;;4.93;3.17;;;;;;;;;;5017472;28;20037;-76
2023/04/07 12:38:24;;;;;;;5.80;2.80;;;;;;;;;;5023116;28;20026;-76
2023/04/07 12:40:51;;;;;;;3.88;2.47;;;;;;;;;;5027706;28;20118;-77
2023/04/07 12:43:18;;;;;;;3.25;2.30;;;;;;;;;;5022434;28;20025;-77
2023/04/07 12:45:44;;;;;;;3.25;2.65;;;;;;;;;;5022452;28;20929;-77
2023/04/07 12:48:10;;;;;;;6.60;3.38;;;;;;;;;;5021372;28;20061;-76
2023/04/07 12:50:36;;;;;;;4.18;2.75;;;;;;;;;;5000652;28;20393;-77
2023/04/07 12:53:04;;;;;;;4.10;2.92;;;;;;;;;;5002374;28;20045;-76
2023/04/07 12:55:32;;;;;;;3.78;2.60;;;;;;;;;;5002308;28;20025;-75
2023/04/07 12:58:01;;;;;;;3.55;2.65;;;;;;;;;;5009580;28;20056;-76
2023/04/07 13:00:28;;;;;;;3.80;2.47;;;;;;;;;;5002374;28;20197;-77
2023/04/07 13:02:54;;;;;;;3.70;2.65;;;;;;;;;;5004392;28;20044;-76
2023/04/07 13:05:20;;;;;;;3.88;2.70;;;;;;;;;;5004945;28;20500;-76
2023/04/07 13:07:46;;;;;;;3.70;2.80;;;;;;;;;;5000285;28;20111;-76
2023/04/07 13:10:13;;;;;;;4.18;2.50;;;;;;;;;;5008101;28;20066;-76
2023/04/07 13:12:40;;;;;;;3.70;2.47;;;;;;;;;;5000873;28;20112;-76
2023/04/07 13:15:06;;;;;;;5.95;2.25;;;;;;;;;;5002353;28;20017;-76
2023/04/07 13:17:35;;;;;;;3.97;2.53;;;;;;;;;;5001847;28;20109;-76
2023/04/07 13:20:01;;;;;;;4.00;2.50;;;;;;;;;;5006715;28;20923;-76
2023/04/07 13:22:27;;;;;;;6.20;2.78;;;;;;;;;;4999972;28;20064;-76
2023/04/07 13:24:53;;;;;;;3.15;2.40;;;;;;;;;;5001520;28;20069;-76
2023/04/07 13:27:20;;;;;;;5.05;2.50;;;;;;;;;;5002693;28;20032;-77
2023/04/07 13:29:46;;;;;;;4.55;2.80;;;;;;;;;;4995552;28;20018;-75
2023/04/07 13:32:13;;;;;;;3.20;2.40;;;;;;;;;;5000219;28;20026;-76
2023/04/07 13:34:40;;;;;;;3.40;2.45;;;;;;;;;;4998308;28;20129;-77
2023/04/07 13:37:06;;;;;;;3.03;2.25;;;;;;;;;;4998686;28;20030;-76
2023/04/07 13:39:33;;;;;;;3.92;2.95;;;;;;;;;;4995901;28;20018;-76
2023/04/07 13:41:59;;;;;;;2.47;2.10;;;;;;;;;;5002931;28;20029;-76
2023/04/07 13:44:27;;;;;;;3.38;2.40;;;;;;;;;;5006314;28;20017;-77
2023/04/07 13:46:53;;;;;;;4.85;2.40;;;;;;;;;;5001544;28;20113;-76
2023/04/07 13:49:20;;;;;;;3.97;2.28;;;;;;;;;;5005547;28;20022;-79
2023/04/07 13:51:46;;;;;;;4.78;2.50;;;;;;;;;;4984199;28;20120;-75
2023/04/07 13:54:13;;;;;;;5.25;2.28;;;;;;;;;;4987295;28;20057;-76
2023/04/07 13:56:39;;;;;;;2.83;2.38;;;;;;;;;;4989865;28;20034;-75
2023/04/07 13:59:06;;;;;;;4.32;2.45;;;;;;;;;;4994967;28;20026;-74
2023/04/07 14:01:33;;;;;;;3.75;2.72;;;;;;;;;;4998971;28;20064;-74
2023/04/07 14:04:02;;;;;;;4.20;2.40;;;;;;;;;;4996693;28;20053;-75
2023/04/07 14:06:28;;;;;;;5.10;2.47;;;;;;;;;;4998217;28;20056;-74
2023/04/07 14:08:54;;;;;;;11.85;3.05;;;;;;;;;;4998643;28;20486;-76
2023/04/07 14:11:21;;;;;;;7.35;2.67;;;;;;;;;;5000293;28;20030;-74
2023/04/07 14:13:48;;;;;;;4.63;2.50;;;;;;;;;;4999909;28;20109;-75
2023/04/07 14:16:14;;;;;;;12.35;2.95;;;;;;;;;;4996682;28;20050;-74
2023/04/07 14:18:40;;;;;;;5.32;2.40;;;;;;;;;;5001147;28;20101;-76
2023/04/07 14:21:06;;;;;;;5.18;2.75;;;;;;;;;;4993347;28;20046;-76
2023/04/07 14:23:33;;;;;;;4.40;2.20;;;;;;;;;;4984818;28;20586;-77
2023/04/07 14:25:59;;;;;;;4.75;2.38;;;;;;;;;;4999993;28;20070;-77
2023/04/07 14:28:26;;;;;;;4.55;2.20;;;;;;;;;;5004077;28;20084;-76
2023/04/07 14:30:53;;;;;;;5.05;2.58;;;;;;;;;;4993536;28;20054;-77
2023/04/07 14:33:20;;;;;;;3.40;2.20;;;;;;;;;;4978962;28;20542;-76
2023/04/07 14:35:47;;;;;;;2.92;2.03;;;;;;;;;;4999621;28;20041;-76
2023/04/07 14:38:13;;;;;;;4.25;2.63;;;;;;;;;;5003330;28;20067;-76
2023/04/07 14:40:40;;;;;;;3.38;2.40;;;;;;;;;;4993396;28;20026;-77
2023/04/07 14:43:06;;;;;;;8.10;2.40;;;;;;;;;;4995545;28;20046;-77
2023/04/07 14:45:33;;;;;;;6.03;2.30;;;;;;;;;;4992423;28;20018;-77
2023/04/07 14:47:59;;;;;;;3.88;2.75;;;;;;;;;;4998737;28;20038;-78
2023/04/07 14:50:26;;;;;;;4.93;2.63;;;;;;;;;;4986102;28;20882;-76
2023/04/07 14:52:52;;;;;;;3.08;2.50;;;;;;;;;;5005684;28;20052;-76
2023/04/07 14:55:19;;;;;;;7.82;2.90;;;;;;;;;;5005088;28;20894;-76